Time;durP1;ratioP1;P1;durP2;ratioP2;P2;SDS_P1;SDS_P2;PMS_P1;PMS_P2;Temp;Humidity;BMP_temperature;BMP_pressure;BME280_temperature;BME280_humidity;BME280_pressure;Samples;Min_cycle;Max_cycle;Signal;HPM_P1;HPM_P2
2022/07/19 00:00:01;;;;;;;12.95;9.27;;;11.50;99.90;;;;;;5033408;28;20474;-70
2022/07/19 00:02:26;;;;;;;10.45;8.45;;;11.50;99.90;;;;;;5033871;28;20071;-70
2022/07/19 00:04:52;;;;;;;12.65;9.35;;;11.50;99.90;;;;;;5033322;28;20421;-70
2022/07/19 00:07:18;;;;;;;13.60;9.85;;;11.40;99.90;;;;;;5033336;28;20550;-70
2022/07/19 00:09:43;;;;;;;12.68;10.00;;;11.40;99.90;;;;;;5033102;28;20030;-70
2022/07/19 00:12:10;;;;;;;13.55;9.27;;;11.40;99.90;;;;;;5034259;28;20484;-70
2022/07/19 00:14:36;;;;;;;12.90;9.52;;;11.30;99.90;;;;;;5037440;28;20473;-70
2022/07/19 00:17:02;;;;;;;14.82;9.98;;;11.30;99.90;;;;;;5037273;28;20035;-70
2022/07/19 00:19:27;;;;;;;15.77;9.85;;;11.20;99.90;;;;;;5037288;28;20029;-70
2022/07/19 00:21:53;;;;;;;13.20;9.50;;;11.20;99.90;;;;;;5037094;28;20442;-70
2022/07/19 00:24:18;;;;;;;12.65;8.73;;;11.20;99.90;;;;;;5037463;28;20092;-70
2022/07/19 00:26:44;;;;;;;16.02;9.50;;;11.20;99.90;;;;;;5036917;28;20028;-70
2022/07/19 00:29:09;;;;;;;11.85;8.70;;;11.10;99.90;;;;;;5037124;28;20021;-70
2022/07/19 00:31:36;;;;;;;12.45;8.10;;;11.10;99.90;;;;;;5037126;28;20488;-70
2022/07/19 00:34:01;;;;;;;11.30;8.48;;;11.00;99.90;;;;;;5037072;28;20048;-70
2022/07/19 00:36:27;;;;;;;15.38;7.93;;;10.90;99.90;;;;;;5037029;28;20455;-70
2022/07/19 00:38:52;;;;;;;13.20;7.85;;;10.90;99.90;;;;;;5036926;28;20083;-70
2022/07/19 00:41:18;;;;;;;12.52;8.18;;;10.80;99.90;;;;;;5036776;28;20032;-70
2022/07/19 00:43:44;;;;;;;9.20;7.40;;;10.70;99.90;;;;;;5037394;28;20025;-70
2022/07/19 00:46:18;;;;;;;12.13;7.97;;;10.80;99.90;;;;;;5036850;28;20037;-70
2022/07/19 00:48:44;;;;;;;16.10;8.77;;;10.80;99.90;;;;;;5036867;28;20021;-70
2022/07/19 00:51:11;;;;;;;12.90;9.30;;;10.80;99.90;;;;;;5036757;28;20472;-70
2022/07/19 00:53:38;;;;;;;12.85;9.45;;;10.80;99.90;;;;;;5036694;28;20024;-70
2022/07/19 00:56:05;;;;;;;15.48;11.05;;;10.70;99.90;;;;;;5036700;28;20156;-70
2022/07/19 00:58:31;;;;;;;12.65;9.88;;;10.70;99.90;;;;;;5035307;28;20504;-70
2022/07/19 01:00:57;;;;;;;15.07;10.63;;;10.70;99.90;;;;;;5036443;28;20037;-70
2022/07/19 01:03:24;;;;;;;16.48;10.82;;;10.70;99.90;;;;;;5036510;28;20033;-70
2022/07/19 01:05:51;;;;;;;17.05;12.10;;;10.70;99.90;;;;;;5036996;28;20079;-70
2022/07/19 01:08:17;;;;;;;19.42;12.85;;;10.70;99.90;;;;;;5036883;28;20033;-70
2022/07/19 01:10:43;;;;;;;19.33;12.18;;;10.70;99.90;;;;;;5076961;22;20057;-69
2022/07/19 01:13:11;;;;;;;16.90;12.30;;;10.70;99.90;;;;;;5036888;28;20025;-70
2022/07/19 01:15:39;;;;;;;16.60;11.95;;;10.80;99.90;;;;;;5036531;28;20026;-70
2022/07/19 01:18:05;;;;;;;17.95;12.93;;;10.70;99.90;;;;;;5051790;28;20029;-70
2022/07/19 01:20:30;;;;;;;20.02;13.07;;;10.60;99.90;;;;;;5055368;28;20029;-70
2022/07/19 01:22:56;;;;;;;18.83;13.57;;;10.60;99.90;;;;;;5057030;28;20033;-70
2022/07/19 01:25:24;;;;;;;17.35;11.90;;;10.60;99.90;;;;;;5040515;28;20032;-70
2022/07/19 01:27:49;;;;;;;14.13;11.85;;;10.60;99.90;;;;;;5054885;28;20055;-70
2022/07/19 01:30:20;;;;;;;19.08;12.60;;;10.60;99.90;;;;;;5045377;28;20401;-70
2022/07/19 01:32:47;;;;;;;14.20;11.68;;;10.60;99.90;;;;;;5036585;28;20018;-70
2022/07/19 01:35:13;;;;;;;15.63;11.50;;;10.50;99.90;;;;;;5036255;28;20026;-70
2022/07/19 01:37:39;;;;;;;20.48;11.00;;;10.50;99.90;;;;;;5036477;28;20048;-70
2022/07/19 01:40:07;;;;;;;16.17;11.60;;;10.40;99.90;;;;;;5036138;28;20022;-70
2022/07/19 01:42:33;;;;;;;18.38;12.20;;;10.40;99.90;;;;;;5036338;28;20026;-70
2022/07/19 01:44:59;;;;;;;16.88;10.98;;;10.40;99.90;;;;;;5040778;28;20017;-70
2022/07/19 01:47:25;;;;;;;14.65;11.30;;;10.30;99.90;;;;;;5055856;28;20438;-70
2022/07/19 01:49:50;;;;;;;18.17;13.32;;;10.30;99.90;;;;;;5055917;28;20082;-70
2022/07/19 01:52:16;;;;;;;17.60;13.23;;;10.30;99.90;;;;;;5054467;28;20021;-70
2022/07/19 01:54:42;;;;;;;21.00;14.05;;;10.20;99.90;;;;;;5056084;28;20032;-70
2022/07/19 01:57:07;;;;;;;14.73;12.38;;;10.30;99.90;;;;;;5055761;28;20032;-69
2022/07/19 01:59:36;;;;;;;19.23;12.18;;;10.30;99.90;;;;;;5055707;28;20032;-69
2022/07/19 02:02:02;;;;;;;16.83;12.00;;;10.30;99.90;;;;;;5055469;28;20024;-70
2022/07/19 02:04:27;;;;;;;19.17;12.40;;;10.20;99.90;;;;;;5055832;28;20544;-70
2022/07/19 02:06:53;;;;;;;25.17;13.93;;;10.20;99.90;;;;;;5055970;28;20530;-70
2022/07/19 02:09:18;;;;;;;20.65;13.95;;;10.20;99.90;;;;;;5055585;28;20024;-70
2022/07/19 02:11:44;;;;;;;20.02;14.27;;;10.30;99.90;;;;;;5044930;28;20033;-70
2022/07/19 02:14:10;;;;;;;22.73;15.40;;;10.30;99.90;;;;;;5035894;28;20108;-69
2022/07/19 02:16:37;;;;;;;24.65;14.55;;;10.30;99.90;;;;;;5035475;28;20029;-70
2022/07/19 02:19:04;;;;;;;19.80;13.43;;;10.40;99.90;;;;;;5035794;28;20022;-70
2022/07/19 02:21:30;;;;;;;18.92;13.80;;;10.30;99.90;;;;;;5034186;28;20029;-70
2022/07/19 02:23:56;;;;;;;19.10;13.80;;;10.30;99.90;;;;;;5035587;28;20079;-70
2022/07/19 02:26:21;;;;;;;23.50;13.35;;;10.40;99.90;;;;;;5034138;28;20029;-70
2022/07/19 02:28:47;;;;;;;18.02;13.85;;;10.30;99.90;;;;;;5035729;28;20132;-70
2022/07/19 02:31:13;;;;;;;17.25;13.43;;;10.20;99.90;;;;;;5035152;28;20021;-69
2022/07/19 02:33:38;;;;;;;19.95;13.38;;;10.30;99.90;;;;;;5035206;28;20033;-69
2022/07/19 02:36:04;;;;;;;19.58;13.43;;;10.30;99.90;;;;;;5034550;28;20029;-70
2022/07/19 02:38:30;;;;;;;21.90;15.20;;;10.30;99.90;;;;;;5035068;28;20029;-69
2022/07/19 02:40:56;;;;;;;17.40;13.32;;;10.30;99.90;;;;;;5035372;28;20472;-70
2022/07/19 02:43:21;;;;;;;17.45;13.85;;;10.30;99.90;;;;;;5035358;28;20025;-70
2022/07/19 02:45:47;;;;;;;19.17;13.27;;;10.40;99.90;;;;;;5035011;28;20029;-70
2022/07/19 02:48:13;;;;;;;19.92;12.77;;;10.30;99.90;;;;;;5034773;28;20109;-70
2022/07/19 02:50:38;;;;;;;18.17;12.40;;;10.30;99.90;;;;;;5034813;28;20029;-69
2022/07/19 02:53:04;;;;;;;15.40;11.95;;;10.30;99.90;;;;;;5035054;28;20026;-69
2022/07/19 02:55:31;;;;;;;19.55;12.82;;;10.30;99.90;;;;;;5034851;28;20025;-69
2022/07/19 02:57:56;;;;;;;17.88;12.85;;;10.30;99.90;;;;;;5035080;28;20028;-70
2022/07/19 03:00:22;;;;;;;18.02;12.50;;;10.30;99.90;;;;;;5035121;28;20431;-70
2022/07/19 03:02:47;;;;;;;21.13;13.35;;;10.20;99.90;;;;;;5034826;28;20079;-70
2022/07/19 03:05:13;;;;;;;18.33;13.05;;;10.30;99.90;;;;;;5034654;28;20029;-70
2022/07/19 03:07:39;;;;;;;16.73;12.43;;;10.20;99.90;;;;;;5034544;28;20464;-70
2022/07/19 03:10:05;;;;;;;14.68;12.05;;;10.20;99.90;;;;;;5034388;28;20029;-70
2022/07/19 03:12:31;;;;;;;17.92;13.23;;;10.10;99.90;;;;;;5035014;28;20038;-70
2022/07/19 03:14:57;;;;;;;21.92;14.48;;;10.10;99.90;;;;;;5034839;28;20048;-70
2022/07/19 03:17:23;;;;;;;20.00;12.32;;;10.20;99.90;;;;;;5034756;28;20118;-69
2022/07/19 03:19:48;;;;;;;18.08;12.05;;;10.10;99.90;;;;;;5034676;28;20029;-69
2022/07/19 03:22:14;;;;;;;16.92;12.88;;;10.10;99.90;;;;;;5034193;28;20441;-69
2022/07/19 03:24:39;;;;;;;22.02;12.82;;;10.00;99.90;;;;;;5034850;28;20029;-69
2022/07/19 03:27:05;;;;;;;20.02;13.18;;;10.10;99.90;;;;;;5034405;28;20400;-69
2022/07/19 03:29:31;;;;;;;17.27;12.82;;;10.10;99.90;;;;;;5034265;28;20025;-69
2022/07/19 03:31:57;;;;;;;20.30;13.57;;;10.10;99.90;;;;;;5034175;28;20053;-69
2022/07/19 03:34:23;;;;;;;15.93;11.90;;;10.10;99.90;;;;;;5034602;28;20029;-69
2022/07/19 03:36:48;;;;;;;16.90;13.07;;;10.00;99.90;;;;;;5034292;28;20021;-69
2022/07/19 03:39:14;;;;;;;18.15;12.13;;;10.10;99.90;;;;;;5034245;28;20018;-69
2022/07/19 03:41:39;;;;;;;15.70;11.45;;;10.10;99.90;;;;;;5034149;28;20037;-70
2022/07/19 03:44:05;;;;;;;20.10;12.38;;;10.10;99.90;;;;;;5034911;28;20444;-70
2022/07/19 03:46:31;;;;;;;16.90;12.38;;;10.00;99.90;;;;;;5030001;28;20036;-69
2022/07/19 03:48:57;;;;;;;16.67;12.18;;;10.10;99.90;;;;;;5029297;28;20034;-70
2022/07/19 03:51:23;;;;;;;21.35;12.40;;;10.10;99.90;;;;;;5014339;28;20112;-70
2022/07/19 03:53:49;;;;;;;18.70;12.57;;;10.10;99.90;;;;;;5014282;28;20022;-70
2022/07/19 03:56:17;;;;;;;19.85;13.18;;;10.10;99.90;;;;;;5014161;28;20018;-70
2022/07/19 03:58:43;;;;;;;22.05;13.85;;;10.20;99.90;;;;;;5029223;28;20026;-70
2022/07/19 04:01:09;;;;;;;21.90;12.68;;;10.20;99.90;;;;;;5014245;28;20553;-70
2022/07/19 04:03:38;;;;;;;23.35;13.05;;;10.30;99.90;;;;;;5013980;28;20113;-70
2022/07/19 04:06:08;;;;;;;21.58;14.35;;;10.30;99.90;;;;;;5014021;28;20056;-70
2022/07/19 04:08:34;;;;;;;22.25;13.98;;;10.40;99.90;;;;;;5014150;28;20040;-69
2022/07/19 04:11:00;;;;;;;20.70;14.07;;;10.40;99.90;;;;;;5014009;28;20073;-70
2022/07/19 04:13:25;;;;;;;20.08;14.13;;;10.40;99.90;;;;;;5014104;28;20113;-71
2022/07/19 04:15:51;;;;;;;20.30;14.88;;;10.50;99.90;;;;;;5014014;28;20021;-71
2022/07/19 04:18:17;;;;;;;25.13;15.15;;;10.50;99.90;;;;;;5014096;28;20029;-71
2022/07/19 04:20:42;;;;;;;20.73;13.82;;;10.60;99.90;;;;;;5013824;28;20026;-71
2022/07/19 04:23:08;;;;;;;22.13;14.73;;;10.70;99.90;;;;;;5014362;28;20029;-71
2022/07/19 04:25:34;;;;;;;25.20;15.27;;;10.70;99.90;;;;;;5014112;28;20030;-71
2022/07/19 04:27:59;;;;;;;34.05;19.55;;;10.90;99.90;;;;;;5028984;28;20045;-71
2022/07/19 04:30:25;;;;;;;33.10;23.80;;;11.00;99.90;;;;;;5013797;28;20474;-71
2022/07/19 04:32:50;;;;;;;36.03;23.08;;;11.00;99.90;;;;;;5013774;28;20030;-71
2022/07/19 04:35:16;;;;;;;30.05;20.33;;;11.10;99.90;;;;;;5013730;28;20076;-71
2022/07/19 04:37:42;;;;;;;34.10;18.58;;;11.20;99.90;;;;;;5013718;28;20041;-71
2022/07/19 04:40:09;;;;;;;34.13;21.75;;;11.30;99.90;;;;;;5013599;28;20033;-71
2022/07/19 04:42:34;;;;;;;44.97;27.27;;;11.50;99.90;;;;;;5013609;28;20076;-71
2022/07/19 04:45:00;;;;;;;35.10;24.20;;;11.50;99.90;;;;;;5014000;28;20022;-71
2022/07/19 04:47:26;;;;;;;45.75;25.48;;;11.70;99.90;;;;;;5035804;28;20026;-71
2022/07/19 04:49:51;;;;;;;45.90;26.17;;;11.80;99.90;;;;;;5033754;28;20101;-71
2022/07/19 04:52:17;;;;;;;43.25;27.02;;;11.90;99.90;;;;;;5033215;28;20437;-71
2022/07/19 04:54:42;;;;;;;36.20;25.75;;;12.00;99.90;;;;;;5033593;28;20025;-71
2022/07/19 04:57:08;;;;;;;31.33;21.42;;;12.10;99.90;;;;;;5033424;28;20480;-71
2022/07/19 04:59:34;;;;;;;32.97;22.73;;;12.30;99.90;;;;;;5036330;28;20036;-71
2022/07/19 05:01:59;;;;;;;29.40;20.38;;;12.40;99.90;;;;;;5036934;28;20018;-71
2022/07/19 05:04:25;;;;;;;33.67;22.88;;;12.60;99.90;;;;;;5036799;28;20412;-71
2022/07/19 05:06:56;;;;;;;31.75;22.13;;;12.70;99.90;;;;;;5036665;28;20061;-71
2022/07/19 05:09:25;;;;;;;47.17;29.33;;;12.80;99.90;;;;;;5037101;28;20044;-71
2022/07/19 05:11:52;;;;;;;40.40;27.67;;;13.10;99.90;;;;;;5042467;28;20029;-71
2022/07/19 05:14:18;;;;;;;47.08;30.90;;;13.30;99.90;;;;;;5056612;28;20096;-73
2022/07/19 05:16:44;;;;;;;61.60;39.15;;;13.50;99.90;;;;;;5047172;28;20044;-71
2022/07/19 05:19:10;;;;;;;51.20;32.38;;;13.70;99.90;;;;;;5036959;28;20230;-70
2022/07/19 05:21:35;;;;;;;50.70;27.83;;;13.90;99.90;;;;;;5036355;28;20026;-70
2022/07/19 05:24:01;;;;;;;53.13;28.73;;;14.10;99.90;;;;;;5036562;28;20032;-70
2022/07/19 05:26:26;;;;;;;47.67;29.65;;;14.30;99.90;;;;;;5036327;28;20033;-70
2022/07/19 05:28:52;;;;;;;46.22;27.23;;;14.50;99.90;;;;;;5037158;28;20481;-70
2022/07/19 05:31:18;;;;;;;51.20;27.80;;;14.70;99.90;;;;;;5045625;28;20060;-70
2022/07/19 05:33:43;;;;;;;39.08;22.67;;;14.90;99.90;;;;;;5056460;28;20025;-70
2022/07/19 05:36:10;;;;;;;48.97;26.85;;;15.10;99.90;;;;;;5056583;28;20036;-70
2022/07/19 05:38:38;;;;;;;45.63;30.52;;;15.30;99.90;;;;;;5056133;28;20021;-70
2022/07/19 05:41:04;;;;;;;50.20;33.88;;;15.40;99.90;;;;;;5056096;28;20151;-70
2022/07/19 05:43:30;;;;;;;64.07;41.20;;;15.70;99.90;;;;;;5040058;28;20017;-70
2022/07/19 05:45:55;;;;;;;64.18;40.10;;;15.90;99.90;;;;;;5036201;28;20086;-70
2022/07/19 05:48:21;;;;;;;58.53;38.00;;;16.10;99.90;;;;;;5036234;28;20033;-70
2022/07/19 05:50:46;;;;;;;74.30;47.53;;;16.10;99.90;;;;;;5036241;28;20104;-69
2022/07/19 05:53:12;;;;;;;74.88;54.00;;;16.20;99.90;;;;;;5036089;28;20029;-69
2022/07/19 05:55:38;;;;;;;84.15;51.47;;;16.40;99.90;;;;;;5036012;28;20022;-69
2022/07/19 05:58:03;;;;;;;60.95;37.28;;;16.50;99.90;;;;;;5036498;28;20025;-69
2022/07/19 06:00:29;;;;;;;42.78;32.60;;;16.70;99.90;;;;;;5036129;28;20051;-69
2022/07/19 06:02:54;;;;;;;41.65;25.77;;;16.80;99.90;;;;;;5036073;28;20021;-70
2022/07/19 06:05:20;;;;;;;36.55;20.58;;;17.00;99.90;;;;;;5036207;28;20079;-70
2022/07/19 06:07:46;;;;;;;29.42;17.73;;;17.20;99.90;;;;;;5036998;28;20060;-70
2022/07/19 06:10:11;;;;;;;23.83;14.63;;;17.30;99.90;;;;;;5035787;28;20384;-70
2022/07/19 06:12:37;;;;;;;26.35;13.63;;;17.50;99.90;;;;;;5036050;28;20099;-70
2022/07/19 06:15:04;;;;;;;22.85;13.48;;;17.70;99.90;;;;;;5036141;28;20021;-70
2022/07/19 06:17:29;;;;;;;24.65;12.07;;;17.80;99.90;;;;;;5035618;28;20030;-69
2022/07/19 06:19:55;;;;;;;17.60;10.85;;;18.10;99.90;;;;;;5034365;28;20021;-69
2022/07/19 06:22:20;;;;;;;15.80;10.40;;;18.30;99.90;;;;;;5035287;28;20021;-70
2022/07/19 06:24:46;;;;;;;18.95;10.05;;;18.50;99.90;;;;;;5035735;28;20025;-69
2022/07/19 06:27:12;;;;;;;18.55;9.65;;;18.60;99.90;;;;;;5035768;28;20080;-69
2022/07/19 06:29:37;;;;;;;17.05;9.52;;;18.80;99.90;;;;;;5035344;28;20037;-69
2022/07/19 06:32:03;;;;;;;21.95;10.85;;;18.90;99.90;;;;;;5035206;28;20030;-69
2022/07/19 06:34:29;;;;;;;18.08;9.20;;;19.20;99.90;;;;;;5035425;28;20060;-70
2022/07/19 06:36:54;;;;;;;15.32;9.52;;;19.40;99.90;;;;;;5035267;28;20024;-69
2022/07/19 06:39:20;;;;;;;13.73;8.20;;;19.60;99.90;;;;;;5035191;28;20022;-69
2022/07/19 06:41:47;;;;;;;21.50;9.20;;;19.70;99.90;;;;;;5034962;28;20032;-69
2022/07/19 06:44:13;;;;;;;15.90;7.75;;;19.90;99.90;;;;;;5035023;28;20547;-69
2022/07/19 06:46:38;;;;;;;14.82;8.27;;;20.10;99.90;;;;;;5034935;28;20037;-69
2022/07/19 06:49:04;;;;;;;12.68;7.68;;;20.30;99.90;;;;;;5035311;28;20029;-69
2022/07/19 06:51:30;;;;;;;10.75;6.30;;;20.60;99.90;;;;;;5035008;28;20025;-69
2022/07/19 06:53:55;;;;;;;14.30;6.68;;;20.90;99.90;;;;;;5034892;28;20032;-69
2022/07/19 06:56:21;;;;;;;14.40;7.32;;;21.10;99.90;;;;;;5034907;28;20388;-69
2022/07/19 06:58:46;;;;;;;14.02;8.15;;;21.30;99.90;;;;;;5034534;28;20029;-70
2022/07/19 07:01:13;;;;;;;16.20;7.50;;;21.60;99.90;;;;;;5034726;28;20108;-70
2022/07/19 07:03:39;;;;;;;9.70;6.38;;;21.70;99.90;;;;;;5034542;28;20512;-70
2022/07/19 07:06:04;;;;;;;11.50;6.28;;;22.00;99.90;;;;;;5034849;28;20029;-70
2022/07/19 07:08:30;;;;;;;12.80;6.88;;;22.20;99.90;;;;;;5053475;28;20083;-70
2022/07/19 07:10:55;;;;;;;12.20;6.72;;;22.40;99.90;;;;;;5073126;23;20107;-70
2022/07/19 07:13:21;;;;;;;12.70;7.07;;;22.50;99.90;;;;;;5034214;28;20021;-69
2022/07/19 07:15:47;;;;;;;22.40;9.43;;;22.70;99.90;;;;;;5034178;28;20024;-69
2022/07/19 07:18:12;;;;;;;19.23;9.65;;;22.80;99.90;;;;;;5034011;28;20431;-69
2022/07/19 07:20:38;;;;;;;19.67;11.35;;;22.90;99.90;;;;;;5033790;28;20029;-69
2022/07/19 07:23:04;;;;;;;17.00;11.63;;;23.00;99.90;;;;;;5033927;28;20533;-69
2022/07/19 07:25:30;;;;;;;24.05;12.07;;;22.90;99.90;;;;;;5034008;28;20021;-69
2022/07/19 07:27:55;;;;;;;20.80;11.40;;;22.90;99.90;;;;;;5033848;28;20477;-69
2022/07/19 07:30:21;;;;;;;20.40;10.68;;;22.90;99.90;;;;;;5033620;28;20385;-69
2022/07/19 07:32:46;;;;;;;15.90;10.68;;;23.10;99.90;;;;;;5033382;28;20032;-70
2022/07/19 07:35:12;;;;;;;18.60;9.90;;;23.40;99.90;;;;;;5033811;28;20019;-69
2022/07/19 07:37:38;;;;;;;19.17;9.65;;;23.50;99.90;;;;;;5033751;28;20481;-69
2022/07/19 07:40:04;;;;;;;21.63;11.95;;;23.80;99.90;;;;;;5033919;28;20358;-69
2022/07/19 07:42:33;;;;;;;20.42;11.75;;;23.80;99.90;;;;;;5033673;28;20099;-69
2022/07/19 07:45:00;;;;;;;16.55;10.45;;;23.90;99.90;;;;;;5033805;28;20473;-69
2022/07/19 07:47:26;;;;;;;18.77;10.52;;;24.10;99.90;;;;;;5033431;28;20045;-69
2022/07/19 07:49:51;;;;;;;16.13;9.82;;;24.20;99.90;;;;;;5033421;28;20033;-69
2022/07/19 07:52:17;;;;;;;14.38;8.98;;;24.20;99.90;;;;;;5033831;28;20116;-69
2022/07/19 07:54:43;;;;;;;21.60;9.48;;;24.30;99.90;;;;;;5033375;28;20021;-69
2022/07/19 07:57:09;;;;;;;21.08;10.07;;;24.60;99.90;;;;;;5033785;28;20021;-69
2022/07/19 07:59:34;;;;;;;20.80;8.45;;;24.80;99.90;;;;;;5033739;28;20036;-69
2022/07/19 08:02:00;;;;;;;19.95;9.48;;;24.90;99.90;;;;;;5033528;28;20083;-69
2022/07/19 08:04:27;;;;;;;13.63;8.73;;;24.70;99.90;;;;;;5033705;28;20036;-69
2022/07/19 08:06:53;;;;;;;17.00;8.32;;;24.90;99.90;;;;;;5033306;28;20036;-69
2022/07/19 08:09:18;;;;;;;12.95;7.32;;;25.10;99.90;;;;;;5033638;28;20033;-70
2022/07/19 08:11:44;;;;;;;14.70;8.15;;;25.20;99.90;;;;;;5033126;28;20037;-70
2022/07/19 08:14:09;;;;;;;23.63;8.27;;;25.30;99.90;;;;;;5033578;28;20114;-70
2022/07/19 08:16:35;;;;;;;17.30;7.70;;;25.40;99.90;;;;;;5033574;28;20029;-70
2022/07/19 08:19:01;;;;;;;11.02;6.75;;;25.60;99.90;;;;;;5033130;28;20021;-70
2022/07/19 08:21:26;;;;;;;19.48;7.18;;;25.80;99.90;;;;;;5033455;28;20025;-70
2022/07/19 08:23:53;;;;;;;14.73;7.88;;;26.00;99.90;;;;;;5033261;28;20088;-70
2022/07/19 08:26:20;;;;;;;20.52;6.75;;;25.80;99.90;;;;;;5015297;28;20032;-70
2022/07/19 08:28:46;;;;;;;13.77;7.55;;;25.90;99.90;;;;;;5033065;28;20025;-70
2022/07/19 08:31:12;;;;;;;11.10;7.07;;;26.20;99.90;;;;;;5033038;28;20032;-70
2022/07/19 08:33:39;;;;;;;11.73;6.93;;;26.30;99.90;;;;;;5034957;28;20386;-70
2022/07/19 08:36:05;;;;;;;12.15;6.75;;;26.50;99.90;;;;;;5037299;28;20028;-70
2022/07/19 08:38:30;;;;;;;12.80;7.20;;;26.50;99.90;;;;;;5036790;28;20481;-70
2022/07/19 08:40:56;;;;;;;15.35;7.03;;;26.60;99.90;;;;;;5036906;28;20025;-71
2022/07/19 08:43:22;;;;;;;14.70;6.75;;;26.70;99.90;;;;;;5036822;28;20029;-68
2022/07/19 08:45:49;;;;;;;11.55;6.13;;;26.80;99.90;;;;;;5037310;28;20033;-68
2022/07/19 08:48:15;;;;;;;14.98;7.30;;;26.80;99.90;;;;;;5036695;28;20029;-68
2022/07/19 08:50:41;;;;;;;11.77;6.35;;;26.90;99.90;;;;;;5036563;28;20363;-68
2022/07/19 08:53:06;;;;;;;12.07;6.45;;;27.10;99.90;;;;;;5037240;28;20024;-68
2022/07/19 08:55:32;;;;;;;10.07;5.75;;;27.40;99.90;;;;;;5036824;28;20056;-68
2022/07/19 08:57:57;;;;;;;11.63;5.60;;;27.50;99.90;;;;;;5036860;28;20079;-68
2022/07/19 09:00:28;;;;;;;9.52;5.75;;;27.60;99.90;;;;;;5036333;28;20060;-68
2022/07/19 09:02:56;;;;;;;14.18;6.53;;;27.50;99.90;;;;;;5036733;28;20446;-68
2022/07/19 09:05:22;;;;;;;11.73;5.72;;;27.60;99.90;;;;;;5036765;28;20044;-68
2022/07/19 09:07:59;;;;;;;15.10;6.53;;;27.60;99.90;;;;;;5036587;28;20032;-68
2022/07/19 09:10:25;;;;;;;10.27;5.88;;;27.90;99.90;;;;;;5036231;28;20021;-68
2022/07/19 09:13:15;;;;;;;15.00;6.28;;;27.90;99.90;;;;;;5036353;28;20546;-68
2022/07/19 09:15:47;;;;;;;12.45;6.68;;;27.70;99.90;;;;;;5036625;28;20530;-68
2022/07/19 09:18:22;;;;;;;14.70;6.35;;;27.90;99.90;;;;;;5036199;28;20397;-68
2022/07/19 09:20:50;;;;;;;11.48;6.28;;;28.00;99.90;;;;;;5036678;28;20168;-68
2022/07/19 09:23:16;;;;;;;17.23;6.38;;;28.20;99.90;;;;;;5036126;28;20477;-68
2022/07/19 09:25:44;;;;;;;11.05;6.03;;;28.00;99.90;;;;;;5035982;28;20037;-68
2022/07/19 09:28:10;;;;;;;13.52;5.95;;;28.20;99.90;;;;;;5036006;28;20049;-68
2022/07/19 09:30:48;;;;;;;8.40;5.72;;;28.20;99.90;;;;;;5036919;28;20049;-68
2022/07/19 09:33:15;;;;;;;14.82;5.80;;;28.30;99.90;;;;;;5035915;28;20029;-68
2022/07/19 09:35:44;;;;;;;13.82;5.78;;;28.40;99.90;;;;;;5035911;28;20041;-68
2022/07/19 09:38:31;;;;;;;8.95;5.38;;;28.60;99.90;;;;;;5036079;28;20113;-68
2022/07/19 09:41:08;;;;;;;9.57;6.20;;;28.70;99.90;;;;;;5035996;28;20022;-68
2022/07/19 09:43:49;;;;;;;14.02;5.32;;;29.00;99.90;;;;;;5035977;28;20053;-68
2022/07/19 09:46:34;;;;;;;12.40;5.95;;;29.10;99.90;;;;;;5035591;28;20136;-68
2022/07/19 09:49:10;;;;;;;8.55;5.13;;;29.00;99.90;;;;;;5035816;28;20079;-68
2022/07/19 09:51:38;;;;;;;10.85;5.38;;;28.90;99.90;;;;;;5035738;28;20096;-68
2022/07/19 09:54:05;;;;;;;15.02;4.82;;;29.10;99.90;;;;;;5035836;28;20021;-68
2022/07/19 09:56:31;;;;;;;9.82;6.00;;;29.30;99.90;;;;;;5031293;28;20032;-68
2022/07/19 09:58:58;;;;;;;11.15;4.55;;;29.50;99.90;;;;;;5015679;28;20400;-68
2022/07/19 10:01:25;;;;;;;9.52;5.03;;;29.60;99.90;;;;;;5020975;28;20537;-68
2022/07/19 10:03:57;;;;;;;10.07;4.90;;;29.70;99.90;;;;;;5035665;28;20026;-68
2022/07/19 10:06:25;;;;;;;7.50;5.10;;;29.80;99.90;;;;;;5035547;28;20095;-68
2022/07/19 10:08:51;;;;;;;10.30;4.18;;;29.90;99.90;;;;;;5035188;28;20034;-68
2022/07/19 10:11:17;;;;;;;7.25;4.63;;;29.90;99.90;;;;;;5035053;28;20040;-68
2022/07/19 10:13:43;;;;;;;11.27;4.80;;;30.00;99.90;;;;;;5035027;28;20030;-68
2022/07/19 10:16:15;;;;;;;7.28;4.80;;;30.00;99.90;;;;;;5035266;28;20020;-68
2022/07/19 10:19:01;;;;;;;8.20;4.63;;;30.10;99.90;;;;;;5035113;28;20105;-68
2022/07/19 10:21:27;;;;;;;5.60;4.15;;;30.40;99.90;;;;;;5035312;28;20110;-68
2022/07/19 10:23:53;;;;;;;21.30;4.90;;;30.50;99.90;;;;;;5034675;28;20068;-68
2022/07/19 10:26:36;;;;;;;46.05;5.20;;;30.60;99.90;;;;;;5035212;28;20036;-68
2022/07/19 10:29:15;;;;;;;6.30;4.32;;;30.40;99.90;;;;;;5035169;28;20017;-68
2022/07/19 10:31:41;;;;;;;5.50;4.50;;;30.70;99.90;;;;;;5034790;28;20026;-68
2022/07/19 10:34:09;;;;;;;7.65;4.30;;;30.90;99.90;;;;;;5035008;28;20045;-68
2022/07/19 10:36:38;;;;;;;9.43;4.60;;;30.60;99.50;;;;;;5034662;28;20021;-68
2022/07/19 10:39:19;;;;;;;6.30;3.97;;;30.60;99.90;;;;;;5034640;28;20031;-68
2022/07/19 10:42:03;;;;;;;8.75;4.03;;;30.90;99.90;;;;;;5034755;28;20034;-68
2022/07/19 10:44:29;;;;;;;11.65;4.75;;;31.20;99.90;;;;;;5034880;28;20029;-68
2022/07/19 10:46:55;;;;;;;11.73;4.68;;;31.50;99.90;;;;;;5034781;28;20028;-68
2022/07/19 10:49:43;;;;;;;7.22;4.25;;;31.70;99.90;;;;;;5034624;28;20029;-68
2022/07/19 10:52:36;;;;;;;8.75;3.78;;;31.50;97.60;;;;;;5034654;28;20386;-68
2022/07/19 10:55:17;;;;;;;6.20;3.97;;;31.20;97.70;;;;;;5031620;28;20061;-68
2022/07/19 10:57:45;;;;;;;6.70;4.00;;;31.20;96.50;;;;;;5034342;28;20044;-68
2022/07/19 11:00:16;;;;;;;7.53;4.13;;;31.00;96.60;;;;;;5034284;28;20087;-68
2022/07/19 11:02:42;;;;;;;6.07;3.97;;;30.90;99.90;;;;;;5034190;28;20112;-68
2022/07/19 11:05:19;;;;;;;5.88;4.13;;;31.20;99.90;;;;;;5034461;28;20057;-68
2022/07/19 11:07:49;;;;;;;7.82;4.70;;;31.60;99.90;;;;;;5034405;28;20040;-68
2022/07/19 11:10:26;;;;;;;5.47;3.83;;;32.00;99.30;;;;;;5033858;28;20504;-68
2022/07/19 11:12:52;;;;;;;4.88;3.70;;;32.30;99.90;;;;;;5034395;28;20037;-68
2022/07/19 11:15:18;;;;;;;5.32;4.13;;;32.40;99.90;;;;;;5034184;28;20025;-68
2022/07/19 11:17:52;;;;;;;5.95;3.95;;;32.70;97.70;;;;;;5034074;28;20028;-68
2022/07/19 11:20:19;;;;;;;11.30;4.95;;;32.40;96.90;;;;;;5034205;28;20026;-68
2022/07/19 11:22:46;;;;;;;11.88;3.88;;;32.00;96.00;;;;;;5033855;28;20500;-68
2022/07/19 11:25:13;;;;;;;6.38;4.10;;;31.90;96.50;;;;;;5033751;28;20034;-68
2022/07/19 11:27:45;;;;;;;5.93;4.40;;;31.90;95.30;;;;;;5033771;28;20504;-68
2022/07/19 11:30:12;;;;;;;7.70;4.30;;;31.90;96.60;;;;;;5033764;28;20076;-69
2022/07/19 11:32:41;;;;;;;5.95;4.10;;;32.00;98.10;;;;;;5033686;28;20103;-69
2022/07/19 11:35:08;;;;;;;7.88;4.38;;;32.10;96.20;;;;;;5033969;28;20052;-69
2022/07/19 11:37:39;;;;;;;10.75;4.53;;;31.90;93.80;;;;;;5033845;28;20022;-69
2022/07/19 11:40:06;;;;;;;8.45;4.18;;;32.10;96.60;;;;;;5033871;28;20122;-69
2022/07/19 11:42:45;;;;;;;5.25;4.25;;;32.50;96.30;;;;;;5033517;28;20053;-69
2022/07/19 11:45:19;;;;;;;7.07;4.30;;;32.80;93.70;;;;;;5034175;28;20513;-69
2022/07/19 11:47:52;;;;;;;6.25;4.15;;;32.70;93.20;;;;;;5033479;28;20026;-69
2022/07/19 11:50:20;;;;;;;8.45;4.22;;;32.40;94.00;;;;;;5033533;28;20032;-71
2022/07/19 11:52:54;;;;;;;6.65;4.13;;;32.30;92.30;;;;;;5033411;28;20025;-71
2022/07/19 11:55:23;;;;;;;6.10;4.10;;;32.50;94.70;;;;;;5033831;28;20026;-71
2022/07/19 11:57:50;;;;;;;8.18;3.88;;;32.70;99.60;;;;;;5033490;28;20025;-71
2022/07/19 12:00:17;;;;;;;6.90;3.85;;;33.10;95.80;;;;;;5033527;28;20110;-71
2022/07/19 12:03:03;;;;;;;10.98;4.18;;;33.30;96.30;;;;;;5033384;28;20140;-71
2022/07/19 12:05:30;;;;;;;4.80;3.65;;;33.80;98.00;;;;;;5033470;28;20087;-71
2022/07/19 12:08:00;;;;;;;8.68;4.38;;;34.10;95.90;;;;;;5032725;28;20561;-71
2022/07/19 12:10:46;;;;;;;4.60;3.58;;;34.40;94.40;;;;;;5032720;28;20029;-70
2022/07/19 12:13:27;;;;;;;6.05;3.92;;;34.60;97.50;;;;;;5033226;28;20029;-71
2022/07/19 12:15:55;;;;;;;7.70;3.38;;;34.90;94.60;;;;;;5033601;28;20076;-71
2022/07/19 12:18:54;;;;;;;7.47;3.90;;;35.30;95.40;;;;;;5033094;28;20036;-71
2022/07/19 12:21:25;;;;;;;6.18;3.75;;;35.60;95.20;;;;;;5033176;28;20026;-71
2022/07/19 12:24:10;;;;;;;6.25;3.80;;;35.70;95.70;;;;;;5033234;28;20460;-71
2022/07/19 12:26:37;;;;;;;5.80;3.72;;;35.90;94.60;;;;;;5033322;28;20025;-71
2022/07/19 12:29:38;;;;;;;5.00;3.90;;;36.20;96.20;;;;;;5033089;28;20132;-71
2022/07/19 12:32:08;;;;;;;8.57;4.30;;;36.60;95.80;;;;;;5033166;28;20014;-71
2022/07/19 12:34:57;;;;;;;7.85;3.90;;;36.40;92.60;;;;;;5033182;28;20021;-71